sensor_id;sensor_type;location;lat;lon;timestamp;temperature;humidity
24518;DHT22;12678;51.336;12.406;2022-12-29T00:02:16;9.40;99.90
24518;DHT22;12678;51.336;12.406;2022-12-29T00:04:42;9.40;99.90
24518;DHT22;12678;51.336;12.406;2022-12-29T00:07:08;9.40;99.90
24518;DHT22;12678;51.336;12.406;2022-12-29T00:09:34;9.40;99.90
24518;DHT22;12678;51.336;12.406;2022-12-29T00:12:01;9.40;99.90
24518;DHT22;12678;51.336;12.406;2022-12-29T00:14:27;9.40;99.90
24518;DHT22;12678;51.336;12.406;2022-12-29T00:17:12;9.40;99.90
24518;DHT22;12678;51.336;12.406;2022-12-29T00:19:38;9.50;99.90
24518;DHT22;12678;51.336;12.406;2022-12-29T00:22:22;9.50;99.90
24518;DHT22;12678;51.336;12.406;2022-12-29T00:25:12;9.50;99.90
24518;DHT22;12678;51.336;12.406;2022-12-29T00:27:57;9.50;99.90
24518;DHT22;12678;51.336;12.406;2022-12-29T00:30:41;9.60;99.90
24518;DHT22;12678;51.336;12.406;2022-12-29T00:33:30;9.50;99.90
24518;DHT22;12678;51.336;12.406;2022-12-29T00:38:48;9.60;99.90
24518;DHT22;12678;51.336;12.406;2022-12-29T00:41:33;9.60;99.90
24518;DHT22;12678;51.336;12.406;2022-12-29T00:44:17;9.70;99.90
24518;DHT22;12678;51.336;12.406;2022-12-29T00:46:44;9.60;99.90
24518;DHT22;12678;51.336;12.406;2022-12-29T00:49:11;9.70;99.90
24518;DHT22;12678;51.336;12.406;2022-12-29T00:52:09;9.70;99.90
24518;DHT22;12678;51.336;12.406;2022-12-29T00:54:37;9.80;99.90
24518;DHT22;12678;51.336;12.406;2022-12-29T00:57:04;9.80;99.90
24518;DHT22;12678;51.336;12.406;2022-12-29T00:59:30;9.80;99.90
24518;DHT22;12678;51.336;12.406;2022-12-29T01:01:56;9.80;99.90
24518;DHT22;12678;51.336;12.406;2022-12-29T01:04:24;9.80;99.90
24518;DHT22;12678;51.336;12.406;2022-12-29T01:06:50;9.80;99.90
24518;DHT22;12678;51.336;12.406;2022-12-29T01:09:16;10.00;99.90
24518;DHT22;12678;51.336;12.406;2022-12-29T01:12:01;9.90;99.90
24518;DHT22;12678;51.336;12.406;2022-12-29T01:14:27;9.90;99.90
24518;DHT22;12678;51.336;12.406;2022-12-29T01:16:54;10.00;99.90
24518;DHT22;12678;51.336;12.406;2022-12-29T01:19:20;10.00;99.90
24518;DHT22;12678;51.336;12.406;2022-12-29T01:21:47;10.00;99.90
24518;DHT22;12678;51.336;12.406;2022-12-29T01:24:14;10.00;99.90
24518;DHT22;12678;51.336;12.406;2022-12-29T01:26:40;10.10;99.90
24518;DHT22;12678;51.336;12.406;2022-12-29T01:29:06;10.10;99.90
24518;DHT22;12678;51.336;12.406;2022-12-29T01:31:31;10.10;99.90
24518;DHT22;12678;51.336;12.406;2022-12-29T01:33:57;10.10;99.90
24518;DHT22;12678;51.336;12.406;2022-12-29T01:36:24;10.10;99.90
24518;DHT22;12678;51.336;12.406;2022-12-29T01:38:50;10.20;99.90
24518;DHT22;12678;51.336;12.406;2022-12-29T01:41:16;10.20;99.90
24518;DHT22;12678;51.336;12.406;2022-12-29T01:46:38;10.20;99.90
24518;DHT22;12678;51.336;12.406;2022-12-29T01:51:37;10.30;99.90
24518;DHT22;12678;51.336;12.406;2022-12-29T01:54:07;10.30;99.90
24518;DHT22;12678;51.336;12.406;2022-12-29T01:56:35;10.20;99.90
24518;DHT22;12678;51.336;12.406;2022-12-29T01:59:05;10.20;99.90
24518;DHT22;12678;51.336;12.406;2022-12-29T02:01:32;10.20;99.90
24518;DHT22;12678;51.336;12.406;2022-12-29T02:03:58;10.30;99.90
24518;DHT22;12678;51.336;12.406;2022-12-29T02:06:29;10.30;99.90
24518;DHT22;12678;51.336;12.406;2022-12-29T02:08:56;10.20;99.90
24518;DHT22;12678;51.336;12.406;2022-12-29T02:11:25;10.30;99.90
24518;DHT22;12678;51.336;12.406;2022-12-29T02:13:52;10.30;99.90
24518;DHT22;12678;51.336;12.406;2022-12-29T02:22:20;10.30;99.90
24518;DHT22;12678;51.336;12.406;2022-12-29T02:39:40;10.50;99.90
24518;DHT22;12678;51.336;12.406;2022-12-29T02:42:14;10.50;99.90
24518;DHT22;12678;51.336;12.406;2022-12-29T02:44:57;10.50;99.90
24518;DHT22;12678;51.336;12.406;2022-12-29T02:47:39;10.50;99.90
24518;DHT22;12678;51.336;12.406;2022-12-29T02:52:48;10.50;99.90
24518;DHT22;12678;51.336;12.406;2022-12-29T02:55:15;10.50;99.90
24518;DHT22;12678;51.336;12.406;2022-12-29T02:57:40;10.50;99.90
24518;DHT22;12678;51.336;12.406;2022-12-29T03:00:10;10.50;99.90
24518;DHT22;12678;51.336;12.406;2022-12-29T03:03:05;10.50;99.90
24518;DHT22;12678;51.336;12.406;2022-12-29T03:08:22;10.60;99.90
24518;DHT22;12678;51.336;12.406;2022-12-29T03:11:04;10.50;99.90
24518;DHT22;12678;51.336;12.406;2022-12-29T03:13:43;10.60;99.90
24518;DHT22;12678;51.336;12.406;2022-12-29T03:16:45;10.60;99.90
24518;DHT22;12678;51.336;12.406;2022-12-29T03:19:27;10.60;99.90
24518;DHT22;12678;51.336;12.406;2022-12-29T03:24:45;10.60;99.90
24518;DHT22;12678;51.336;12.406;2022-12-29T03:27:17;10.60;99.90
24518;DHT22;12678;51.336;12.406;2022-12-29T03:29:54;10.60;99.90
24518;DHT22;12678;51.336;12.406;2022-12-29T03:32:23;10.60;99.90
24518;DHT22;12678;51.336;12.406;2022-12-29T03:34:50;10.60;99.90
24518;DHT22;12678;51.336;12.406;2022-12-29T03:37:20;10.60;99.90
24518;DHT22;12678;51.336;12.406;2022-12-29T03:39:46;10.60;99.90
24518;DHT22;12678;51.336;12.406;2022-12-29T03:42:19;10.60;99.90
24518;DHT22;12678;51.336;12.406;2022-12-29T03:44:45;10.60;99.90
24518;DHT22;12678;51.336;12.406;2022-12-29T03:47:12;10.60;99.90
24518;DHT22;12678;51.336;12.406;2022-12-29T03:49:38;10.60;99.90
24518;DHT22;12678;51.336;12.406;2022-12-29T03:52:04;10.60;99.90
24518;DHT22;12678;51.336;12.406;2022-12-29T03:54:30;10.50;99.90
24518;DHT22;12678;51.336;12.406;2022-12-29T03:56:56;10.50;99.90
24518;DHT22;12678;51.336;12.406;2022-12-29T03:59:22;10.50;99.90
24518;DHT22;12678;51.336;12.406;2022-12-29T04:01:48;10.50;99.90
24518;DHT22;12678;51.336;12.406;2022-12-29T04:04:13;10.50;99.90
24518;DHT22;12678;51.336;12.406;2022-12-29T04:06:39;10.50;99.90
24518;DHT22;12678;51.336;12.406;2022-12-29T04:09:05;10.50;99.90
24518;DHT22;12678;51.336;12.406;2022-12-29T04:11:31;10.60;99.90
24518;DHT22;12678;51.336;12.406;2022-12-29T04:13:57;10.50;99.90
24518;DHT22;12678;51.336;12.406;2022-12-29T04:16:22;10.50;99.90
24518;DHT22;12678;51.336;12.406;2022-12-29T04:18:49;10.50;99.90
24518;DHT22;12678;51.336;12.406;2022-12-29T04:21:15;10.50;99.90
24518;DHT22;12678;51.336;12.406;2022-12-29T04:23:40;10.50;99.90
24518;DHT22;12678;51.336;12.406;2022-12-29T04:26:07;10.50;99.90
24518;DHT22;12678;51.336;12.406;2022-12-29T04:28:34;10.60;99.90
24518;DHT22;12678;51.336;12.406;2022-12-29T04:31:00;10.60;99.90
24518;DHT22;12678;51.336;12.406;2022-12-29T04:33:26;10.60;99.90
24518;DHT22;12678;51.336;12.406;2022-12-29T04:35:52;10.60;99.90
24518;DHT22;12678;51.336;12.406;2022-12-29T04:38:22;10.60;99.90
24518;DHT22;12678;51.336;12.406;2022-12-29T04:40:49;10.70;99.90
24518;DHT22;12678;51.336;12.406;2022-12-29T04:43:15;10.70;99.90
24518;DHT22;12678;51.336;12.406;2022-12-29T04:45:44;10.70;99.90
24518;DHT22;12678;51.336;12.406;2022-12-29T04:48:10;10.70;99.90
24518;DHT22;12678;51.336;12.406;2022-12-29T04:50:36;10.80;99.90
24518;DHT22;12678;51.336;12.406;2022-12-29T04:53:01;10.80;99.90
24518;DHT22;12678;51.336;12.406;2022-12-29T04:55:27;10.80;99.90
24518;DHT22;12678;51.336;12.406;2022-12-29T04:57:53;10.80;99.90
24518;DHT22;12678;51.336;12.406;2022-12-29T05:00:19;10.80;99.90
24518;DHT22;12678;51.336;12.406;2022-12-29T05:02:45;10.80;99.90
24518;DHT22;12678;51.336;12.406;2022-12-29T05:05:10;10.80;99.90
24518;DHT22;12678;51.336;12.406;2022-12-29T05:07:36;10.90;99.90
24518;DHT22;12678;51.336;12.406;2022-12-29T05:10:03;10.90;99.90
24518;DHT22;12678;51.336;12.406;2022-12-29T05:12:35;10.80;99.90
24518;DHT22;12678;51.336;12.406;2022-12-29T05:15:02;10.80;99.90
24518;DHT22;12678;51.336;12.406;2022-12-29T05:17:28;10.80;99.90
24518;DHT22;12678;51.336;12.406;2022-12-29T05:19:54;10.80;99.90
24518;DHT22;12678;51.336;12.406;2022-12-29T05:22:20;10.80;99.90
24518;DHT22;12678;51.336;12.406;2022-12-29T05:24:45;10.70;99.90
24518;DHT22;12678;51.336;12.406;2022-12-29T05:27:11;10.70;99.90
24518;DHT22;12678;51.336;12.406;2022-12-29T05:29:37;10.70;99.90
24518;DHT22;12678;51.336;12.406;2022-12-29T05:32:03;10.60;99.90
24518;DHT22;12678;51.336;12.406;2022-12-29T05:34:29;10.60;99.90
24518;DHT22;12678;51.336;12.406;2022-12-29T05:36:54;10.70;99.90
24518;DHT22;12678;51.336;12.406;2022-12-29T05:39:20;10.60;99.90
24518;DHT22;12678;51.336;12.406;2022-12-29T05:41:46;10.60;99.90
24518;DHT22;12678;51.336;12.406;2022-12-29T05:44:11;10.50;99.90
24518;DHT22;12678;51.336;12.406;2022-12-29T05:46:40;10.50;99.90
24518;DHT22;12678;51.336;12.406;2022-12-29T05:49:06;10.50;99.90
24518;DHT22;12678;51.336;12.406;2022-12-29T05:51:31;10.50;99.90
24518;DHT22;12678;51.336;12.406;2022-12-29T05:53:57;10.50;99.90
24518;DHT22;12678;51.336;12.406;2022-12-29T05:56:23;10.50;99.90
24518;DHT22;12678;51.336;12.406;2022-12-29T05:58:49;10.60;99.90
24518;DHT22;12678;51.336;12.406;2022-12-29T06:01:14;10.50;99.90
24518;DHT22;12678;51.336;12.406;2022-12-29T06:03:40;10.50;99.90
24518;DHT22;12678;51.336;12.406;2022-12-29T06:06:06;10.50;99.90
24518;DHT22;12678;51.336;12.406;2022-12-29T06:08:31;10.50;99.90
24518;DHT22;12678;51.336;12.406;2022-12-29T06:10:57;10.60;99.90
24518;DHT22;12678;51.336;12.406;2022-12-29T06:13:22;10.60;99.90
24518;DHT22;12678;51.336;12.406;2022-12-29T06:15:49;10.60;99.90
24518;DHT22;12678;51.336;12.406;2022-12-29T06:18:14;10.60;99.90
24518;DHT22;12678;51.336;12.406;2022-12-29T06:20:40;10.60;99.90
24518;DHT22;12678;51.336;12.406;2022-12-29T06:23:06;10.60;99.90
24518;DHT22;12678;51.336;12.406;2022-12-29T06:25:32;10.70;99.90
24518;DHT22;12678;51.336;12.406;2022-12-29T06:28:00;10.70;99.90
24518;DHT22;12678;51.336;12.406;2022-12-29T06:30:26;10.70;99.90
24518;DHT22;12678;51.336;12.406;2022-12-29T06:32:51;10.70;99.90
24518;DHT22;12678;51.336;12.406;2022-12-29T06:35:17;10.70;99.90
24518;DHT22;12678;51.336;12.406;2022-12-29T06:37:43;10.70;99.90
24518;DHT22;12678;51.336;12.406;2022-12-29T06:40:09;10.70;99.90
24518;DHT22;12678;51.336;12.406;2022-12-29T06:42:35;10.70;99.90
24518;DHT22;12678;51.336;12.406;2022-12-29T06:45:01;10.70;99.90
24518;DHT22;12678;51.336;12.406;2022-12-29T06:47:27;10.80;99.90
24518;DHT22;12678;51.336;12.406;2022-12-29T06:49:52;10.80;99.90
24518;DHT22;12678;51.336;12.406;2022-12-29T06:52:18;10.80;99.90
24518;DHT22;12678;51.336;12.406;2022-12-29T06:54:44;10.80;99.90
24518;DHT22;12678;51.336;12.406;2022-12-29T06:57:09;10.80;99.90
24518;DHT22;12678;51.336;12.406;2022-12-29T06:59:35;10.80;99.90
24518;DHT22;12678;51.336;12.406;2022-12-29T07:02:01;10.80;99.90
24518;DHT22;12678;51.336;12.406;2022-12-29T07:04:27;10.80;99.90
24518;DHT22;12678;51.336;12.406;2022-12-29T07:06:53;10.80;99.90
24518;DHT22;12678;51.336;12.406;2022-12-29T07:09:19;10.70;99.90
24518;DHT22;12678;51.336;12.406;2022-12-29T07:11:45;10.70;99.90
24518;DHT22;12678;51.336;12.406;2022-12-29T07:14:11;10.70;99.90
24518;DHT22;12678;51.336;12.406;2022-12-29T07:16:37;10.60;99.90
24518;DHT22;12678;51.336;12.406;2022-12-29T07:19:03;10.60;99.90
24518;DHT22;12678;51.336;12.406;2022-12-29T07:21:28;10.60;99.90
24518;DHT22;12678;51.336;12.406;2022-12-29T07:23:54;10.60;99.90
24518;DHT22;12678;51.336;12.406;2022-12-29T07:26:20;10.50;99.90
24518;DHT22;12678;51.336;12.406;2022-12-29T07:28:45;10.50;99.90
24518;DHT22;12678;51.336;12.406;2022-12-29T07:31:20;10.60;99.90
24518;DHT22;12678;51.336;12.406;2022-12-29T07:33:46;10.60;99.90
24518;DHT22;12678;51.336;12.406;2022-12-29T07:36:14;10.60;99.90
24518;DHT22;12678;51.336;12.406;2022-12-29T07:38:40;10.60;99.90
24518;DHT22;12678;51.336;12.406;2022-12-29T07:41:06;10.60;99.90
24518;DHT22;12678;51.336;12.406;2022-12-29T07:43:32;10.60;99.90
24518;DHT22;12678;51.336;12.406;2022-12-29T07:45:57;10.60;99.90
24518;DHT22;12678;51.336;12.406;2022-12-29T07:48:23;10.60;99.90
24518;DHT22;12678;51.336;12.406;2022-12-29T07:50:48;10.60;99.90
24518;DHT22;12678;51.336;12.406;2022-12-29T07:53:14;10.70;99.90
24518;DHT22;12678;51.336;12.406;2022-12-29T07:55:40;10.70;99.90
24518;DHT22;12678;51.336;12.406;2022-12-29T07:58:05;10.70;99.90
24518;DHT22;12678;51.336;12.406;2022-12-29T08:00:31;10.70;99.90
24518;DHT22;12678;51.336;12.406;2022-12-29T08:02:57;10.70;99.90
24518;DHT22;12678;51.336;12.406;2022-12-29T08:05:22;10.70;99.90
24518;DHT22;12678;51.336;12.406;2022-12-29T08:07:48;10.70;99.90
24518;DHT22;12678;51.336;12.406;2022-12-29T08:10:14;10.70;99.90
24518;DHT22;12678;51.336;12.406;2022-12-29T08:12:41;10.70;99.90
24518;DHT22;12678;51.336;12.406;2022-12-29T08:15:11;10.70;99.90
24518;DHT22;12678;51.336;12.406;2022-12-29T08:17:37;10.80;99.90
24518;DHT22;12678;51.336;12.406;2022-12-29T08:20:03;10.80;99.90
24518;DHT22;12678;51.336;12.406;2022-12-29T08:22:29;10.90;99.90
24518;DHT22;12678;51.336;12.406;2022-12-29T08:24:55;10.90;99.90
24518;DHT22;12678;51.336;12.406;2022-12-29T08:27:21;11.00;99.90
24518;DHT22;12678;51.336;12.406;2022-12-29T08:29:47;11.00;99.90
24518;DHT22;12678;51.336;12.406;2022-12-29T08:32:13;11.00;99.90
24518;DHT22;12678;51.336;12.406;2022-12-29T08:34:39;11.00;99.90
24518;DHT22;12678;51.336;12.406;2022-12-29T08:37:05;11.10;99.90
24518;DHT22;12678;51.336;12.406;2022-12-29T08:39:30;11.10;99.90
24518;DHT22;12678;51.336;12.406;2022-12-29T08:41:56;11.10;99.90
24518;DHT22;12678;51.336;12.406;2022-12-29T08:44:22;11.10;99.90
24518;DHT22;12678;51.336;12.406;2022-12-29T08:46:47;11.10;99.90
24518;DHT22;12678;51.336;12.406;2022-12-29T08:49:13;11.20;99.90
24518;DHT22;12678;51.336;12.406;2022-12-29T08:51:39;11.20;99.90
24518;DHT22;12678;51.336;12.406;2022-12-29T08:54:05;11.20;99.90
24518;DHT22;12678;51.336;12.406;2022-12-29T08:56:31;11.20;99.90
24518;DHT22;12678;51.336;12.406;2022-12-29T08:58:56;11.30;99.90
24518;DHT22;12678;51.336;12.406;2022-12-29T09:01:22;11.30;99.90
24518;DHT22;12678;51.336;12.406;2022-12-29T09:03:48;11.30;99.90
24518;DHT22;12678;51.336;12.406;2022-12-29T09:06:15;11.30;99.90
24518;DHT22;12678;51.336;12.406;2022-12-29T09:08:42;11.40;99.90
24518;DHT22;12678;51.336;12.406;2022-12-29T09:11:11;11.40;99.90
24518;DHT22;12678;51.336;12.406;2022-12-29T09:13:37;11.40;99.90
24518;DHT22;12678;51.336;12.406;2022-12-29T09:16:03;11.40;99.90
24518;DHT22;12678;51.336;12.406;2022-12-29T09:18:30;11.40;99.90
24518;DHT22;12678;51.336;12.406;2022-12-29T09:21:01;11.50;99.90
24518;DHT22;12678;51.336;12.406;2022-12-29T09:23:28;11.50;99.90
24518;DHT22;12678;51.336;12.406;2022-12-29T09:25:54;11.50;99.90
24518;DHT22;12678;51.336;12.406;2022-12-29T09:28:20;11.50;99.90
24518;DHT22;12678;51.336;12.406;2022-12-29T09:30:46;11.60;99.90
24518;DHT22;12678;51.336;12.406;2022-12-29T09:33:11;11.60;99.90
24518;DHT22;12678;51.336;12.406;2022-12-29T09:35:37;11.60;99.90
24518;DHT22;12678;51.336;12.406;2022-12-29T09:38:06;11.60;99.90
24518;DHT22;12678;51.336;12.406;2022-12-29T09:40:33;11.70;99.90
24518;DHT22;12678;51.336;12.406;2022-12-29T09:43:32;11.70;99.90
24518;DHT22;12678;51.336;12.406;2022-12-29T09:46:26;11.80;99.90
24518;DHT22;12678;51.336;12.406;2022-12-29T09:51:44;11.90;99.90
24518;DHT22;12678;51.336;12.406;2022-12-29T09:56:53;12.00;99.90
24518;DHT22;12678;51.336;12.406;2022-12-29T09:59:21;12.10;99.90
24518;DHT22;12678;51.336;12.406;2022-12-29T10:04:48;12.20;99.90
24518;DHT22;12678;51.336;12.406;2022-12-29T10:07:38;12.20;99.90
24518;DHT22;12678;51.336;12.406;2022-12-29T10:12:49;12.40;99.90
24518;DHT22;12678;51.336;12.406;2022-12-29T10:18:23;12.50;99.90
24518;DHT22;12678;51.336;12.406;2022-12-29T10:23:53;12.60;99.90
24518;DHT22;12678;51.336;12.406;2022-12-29T10:26:26;12.60;99.90
24518;DHT22;12678;51.336;12.406;2022-12-29T10:31:23;12.50;99.90
24518;DHT22;12678;51.336;12.406;2022-12-29T10:33:53;12.50;99.90
24518;DHT22;12678;51.336;12.406;2022-12-29T10:36:28;12.50;99.90
24518;DHT22;12678;51.336;12.406;2022-12-29T10:39:23;12.40;99.90
24518;DHT22;12678;51.336;12.406;2022-12-29T10:44:50;12.40;99.90
24518;DHT22;12678;51.336;12.406;2022-12-29T10:47:18;12.30;99.90
24518;DHT22;12678;51.336;12.406;2022-12-29T10:49:47;12.40;99.90
24518;DHT22;12678;51.336;12.406;2022-12-29T10:52:15;12.40;99.90
24518;DHT22;12678;51.336;12.406;2022-12-29T10:57:36;12.40;99.90
24518;DHT22;12678;51.336;12.406;2022-12-29T11:00:14;12.40;99.90
24518;DHT22;12678;51.336;12.406;2022-12-29T11:08:04;12.60;99.90
24518;DHT22;12678;51.336;12.406;2022-12-29T11:13:10;12.80;99.90
24518;DHT22;12678;51.336;12.406;2022-12-29T11:15:44;12.80;99.90
24518;DHT22;12678;51.336;12.406;2022-12-29T11:18:26;12.90;99.90
24518;DHT22;12678;51.336;12.406;2022-12-29T11:20:54;12.90;99.90
24518;DHT22;12678;51.336;12.406;2022-12-29T11:23:36;13.00;99.90
24518;DHT22;12678;51.336;12.406;2022-12-29T11:26:21;13.00;99.90
24518;DHT22;12678;51.336;12.406;2022-12-29T11:31:49;13.00;99.90
24518;DHT22;12678;51.336;12.406;2022-12-29T11:34:31;13.10;99.90
24518;DHT22;12678;51.336;12.406;2022-12-29T11:37:02;13.10;99.90
24518;DHT22;12678;51.336;12.406;2022-12-29T11:39:56;13.10;99.90
24518;DHT22;12678;51.336;12.406;2022-12-29T11:45:06;13.10;99.90
24518;DHT22;12678;51.336;12.406;2022-12-29T11:47:35;13.10;99.90
24518;DHT22;12678;51.336;12.406;2022-12-29T11:50:04;13.10;99.90
24518;DHT22;12678;51.336;12.406;2022-12-29T11:52:35;13.20;99.90
24518;DHT22;12678;51.336;12.406;2022-12-29T11:55:05;13.20;99.90
24518;DHT22;12678;51.336;12.406;2022-12-29T11:57:33;13.20;99.90
24518;DHT22;12678;51.336;12.406;2022-12-29T12:00:03;13.20;99.90
24518;DHT22;12678;51.336;12.406;2022-12-29T12:03:01;13.20;99.90
24518;DHT22;12678;51.336;12.406;2022-12-29T12:11:16;13.30;99.90
24518;DHT22;12678;51.336;12.406;2022-12-29T12:16:33;13.40;99.90
24518;DHT22;12678;51.336;12.406;2022-12-29T12:19:06;13.40;99.90
24518;DHT22;12678;51.336;12.406;2022-12-29T12:21:43;13.40;99.90
24518;DHT22;12678;51.336;12.406;2022-12-29T12:27:26;13.40;99.90
24518;DHT22;12678;51.336;12.406;2022-12-29T12:29:59;13.40;99.90
24518;DHT22;12678;51.336;12.406;2022-12-29T12:35:37;13.40;99.90
24518;DHT22;12678;51.336;12.406;2022-12-29T12:44:00;13.50;99.90
24518;DHT22;12678;51.336;12.406;2022-12-29T12:52:13;13.40;99.90
24518;DHT22;12678;51.336;12.406;2022-12-29T12:57:48;13.30;99.90
24518;DHT22;12678;51.336;12.406;2022-12-29T13:00:19;13.20;99.90
24518;DHT22;12678;51.336;12.406;2022-12-29T13:03:12;13.20;99.90
24518;DHT22;12678;51.336;12.406;2022-12-29T13:06:26;13.10;99.90
24518;DHT22;12678;51.336;12.406;2022-12-29T13:11:20;13.00;99.90
24518;DHT22;12678;51.336;12.406;2022-12-29T13:19:13;13.00;99.90
24518;DHT22;12678;51.336;12.406;2022-12-29T13:27:19;13.00;99.90
24518;DHT22;12678;51.336;12.406;2022-12-29T13:30:09;12.90;99.90
24518;DHT22;12678;51.336;12.406;2022-12-29T13:38:25;12.90;99.90
24518;DHT22;12678;51.336;12.406;2022-12-29T13:41:00;12.90;99.90
24518;DHT22;12678;51.336;12.406;2022-12-29T13:43:29;12.90;99.90
24518;DHT22;12678;51.336;12.406;2022-12-29T13:46:05;12.90;99.90
24518;DHT22;12678;51.336;12.406;2022-12-29T13:48:41;12.90;99.90
24518;DHT22;12678;51.336;12.406;2022-12-29T13:51:08;12.90;99.90
24518;DHT22;12678;51.336;12.406;2022-12-29T13:53:57;12.90;99.90
24518;DHT22;12678;51.336;12.406;2022-12-29T13:59:34;12.80;99.90
24518;DHT22;12678;51.336;12.406;2022-12-29T14:07:57;12.60;99.90
24518;DHT22;12678;51.336;12.406;2022-12-29T14:10:38;12.50;99.90
24518;DHT22;12678;51.336;12.406;2022-12-29T14:13:22;12.50;99.90
24518;DHT22;12678;51.336;12.406;2022-12-29T14:15:54;12.50;99.90
24518;DHT22;12678;51.336;12.406;2022-12-29T14:18:26;12.40;99.90
24518;DHT22;12678;51.336;12.406;2022-12-29T14:23:46;12.40;99.90
24518;DHT22;12678;51.336;12.406;2022-12-29T14:26:16;12.40;99.90
24518;DHT22;12678;51.336;12.406;2022-12-29T14:28:48;12.40;99.90
24518;DHT22;12678;51.336;12.406;2022-12-29T14:33:39;12.30;99.90
24518;DHT22;12678;51.336;12.406;2022-12-29T14:36:25;12.30;99.90
24518;DHT22;12678;51.336;12.406;2022-12-29T14:38:52;12.30;99.90
24518;DHT22;12678;51.336;12.406;2022-12-29T14:41:38;12.30;99.90
24518;DHT22;12678;51.336;12.406;2022-12-29T14:46:49;12.10;99.90
24518;DHT22;12678;51.336;12.406;2022-12-29T14:49:23;12.20;99.90
24518;DHT22;12678;51.336;12.406;2022-12-29T14:51:52;12.20;99.90
24518;DHT22;12678;51.336;12.406;2022-12-29T14:57:07;12.20;99.90
24518;DHT22;12678;51.336;12.406;2022-12-29T14:59:35;12.10;99.90
24518;DHT22;12678;51.336;12.406;2022-12-29T15:02:05;12.10;99.90
24518;DHT22;12678;51.336;12.406;2022-12-29T15:04:38;12.10;99.90
24518;DHT22;12678;51.336;12.406;2022-12-29T15:07:09;12.10;99.90
24518;DHT22;12678;51.336;12.406;2022-12-29T15:10:08;12.10;99.90
24518;DHT22;12678;51.336;12.406;2022-12-29T15:12:38;12.10;99.90
24518;DHT22;12678;51.336;12.406;2022-12-29T15:15:19;12.10;99.90
24518;DHT22;12678;51.336;12.406;2022-12-29T15:17:46;12.10;99.90
24518;DHT22;12678;51.336;12.406;2022-12-29T15:20:23;12.00;99.90
24518;DHT22;12678;51.336;12.406;2022-12-29T15:23:00;12.00;99.90
24518;DHT22;12678;51.336;12.406;2022-12-29T15:25:26;12.00;99.90
24518;DHT22;12678;51.336;12.406;2022-12-29T15:27:56;11.90;99.90
24518;DHT22;12678;51.336;12.406;2022-12-29T15:30:22;11.80;99.90
24518;DHT22;12678;51.336;12.406;2022-12-29T15:32:49;11.80;99.90
24518;DHT22;12678;51.336;12.406;2022-12-29T15:35:36;11.70;99.90
24518;DHT22;12678;51.336;12.406;2022-12-29T15:38:21;11.70;99.90
24518;DHT22;12678;51.336;12.406;2022-12-29T15:40:53;11.60;99.90
24518;DHT22;12678;51.336;12.406;2022-12-29T15:43:32;11.50;99.90
24518;DHT22;12678;51.336;12.406;2022-12-29T15:46:01;11.50;99.90
24518;DHT22;12678;51.336;12.406;2022-12-29T15:48:27;11.40;99.90
24518;DHT22;12678;51.336;12.406;2022-12-29T15:50:53;11.40;99.90
24518;DHT22;12678;51.336;12.406;2022-12-29T15:53:23;11.40;99.90
24518;DHT22;12678;51.336;12.406;2022-12-29T15:55:56;11.30;99.90
24518;DHT22;12678;51.336;12.406;2022-12-29T15:58:25;11.30;99.90
24518;DHT22;12678;51.336;12.406;2022-12-29T16:01:01;11.20;99.90
24518;DHT22;12678;51.336;12.406;2022-12-29T16:03:31;11.20;99.90
24518;DHT22;12678;51.336;12.406;2022-12-29T16:06:10;11.20;99.90
24518;DHT22;12678;51.336;12.406;2022-12-29T16:08:40;11.10;99.90
24518;DHT22;12678;51.336;12.406;2022-12-29T16:11:28;11.10;99.90
24518;DHT22;12678;51.336;12.406;2022-12-29T16:13:56;11.00;99.90
24518;DHT22;12678;51.336;12.406;2022-12-29T16:16:30;11.00;99.90
24518;DHT22;12678;51.336;12.406;2022-12-29T16:19:08;10.90;99.90
24518;DHT22;12678;51.336;12.406;2022-12-29T16:21:35;10.90;99.90
24518;DHT22;12678;51.336;12.406;2022-12-29T16:24:23;10.90;99.90
24518;DHT22;12678;51.336;12.406;2022-12-29T16:29:51;10.80;99.90
24518;DHT22;12678;51.336;12.406;2022-12-29T16:32:30;10.80;99.90
24518;DHT22;12678;51.336;12.406;2022-12-29T16:35:12;10.70;99.90
24518;DHT22;12678;51.336;12.406;2022-12-29T16:37:39;10.70;99.90
24518;DHT22;12678;51.336;12.406;2022-12-29T16:50:30;10.50;99.90
24518;DHT22;12678;51.336;12.406;2022-12-29T16:52:56;10.50;99.90
24518;DHT22;12678;51.336;12.406;2022-12-29T16:55:25;10.50;99.90
24518;DHT22;12678;51.336;12.406;2022-12-29T16:57:52;10.40;99.90
24518;DHT22;12678;51.336;12.406;2022-12-29T17:00:23;10.40;99.90
24518;DHT22;12678;51.336;12.406;2022-12-29T17:02:52;10.40;99.90
24518;DHT22;12678;51.336;12.406;2022-12-29T17:05:20;10.30;99.90
24518;DHT22;12678;51.336;12.406;2022-12-29T17:07:46;10.40;99.90
24518;DHT22;12678;51.336;12.406;2022-12-29T17:10:13;10.30;99.90
24518;DHT22;12678;51.336;12.406;2022-12-29T17:12:42;10.30;99.90
24518;DHT22;12678;51.336;12.406;2022-12-29T17:15:26;10.30;99.90
24518;DHT22;12678;51.336;12.406;2022-12-29T17:17:55;10.20;99.90
24518;DHT22;12678;51.336;12.406;2022-12-29T17:20:27;10.10;99.90
24518;DHT22;12678;51.336;12.406;2022-12-29T17:22:55;10.10;99.90
24518;DHT22;12678;51.336;12.406;2022-12-29T17:25:31;10.10;99.90
24518;DHT22;12678;51.336;12.406;2022-12-29T17:28:21;10.10;99.90
24518;DHT22;12678;51.336;12.406;2022-12-29T17:30:49;10.00;99.90
24518;DHT22;12678;51.336;12.406;2022-12-29T17:33:20;10.00;99.90
24518;DHT22;12678;51.336;12.406;2022-12-29T17:35:47;9.90;99.90
24518;DHT22;12678;51.336;12.406;2022-12-29T17:38:28;9.90;99.90
24518;DHT22;12678;51.336;12.406;2022-12-29T17:40:55;9.90;99.90
24518;DHT22;12678;51.336;12.406;2022-12-29T17:43:22;9.80;99.90
24518;DHT22;12678;51.336;12.406;2022-12-29T17:45:58;9.80;99.90
24518;DHT22;12678;51.336;12.406;2022-12-29T17:48:29;9.80;99.90
24518;DHT22;12678;51.336;12.406;2022-12-29T17:50:56;9.80;99.90
24518;DHT22;12678;51.336;12.406;2022-12-29T17:53:24;9.80;99.90
24518;DHT22;12678;51.336;12.406;2022-12-29T17:55:51;9.80;99.90
24518;DHT22;12678;51.336;12.406;2022-12-29T17:58:35;9.80;99.90
24518;DHT22;12678;51.336;12.406;2022-12-29T18:01:05;9.80;99.90
24518;DHT22;12678;51.336;12.406;2022-12-29T18:03:33;9.80;99.90
24518;DHT22;12678;51.336;12.406;2022-12-29T18:06:00;9.80;99.90
24518;DHT22;12678;51.336;12.406;2022-12-29T18:08:27;9.80;99.90
24518;DHT22;12678;51.336;12.406;2022-12-29T18:10:54;9.80;99.90
24518;DHT22;12678;51.336;12.406;2022-12-29T18:13:25;9.80;99.90
24518;DHT22;12678;51.336;12.406;2022-12-29T18:15:52;9.80;99.90